createdAt,value
2023-08-09T00:00:39.963Z,1.55
2023-08-09T00:03:08.914Z,2.10
2023-08-09T00:05:37.408Z,1.60
2023-08-09T00:08:05.753Z,2.03
2023-08-09T00:10:37.796Z,1.38
2023-08-09T00:13:06.100Z,2.00
2023-08-09T00:15:34.539Z,1.45
2023-08-09T00:18:03.833Z,1.77
2023-08-09T00:20:34.137Z,1.40
2023-08-09T00:23:03.374Z,1.75
2023-08-09T00:25:33.481Z,1.48
2023-08-09T00:28:02.681Z,1.60
2023-08-09T00:30:31.621Z,1.42
2023-08-09T00:33:00.492Z,2.17
2023-08-09T00:35:29.641Z,1.90
2023-08-09T00:37:58.241Z,1.85
2023-08-09T00:40:27.833Z,1.90
2023-08-09T00:42:56.105Z,2.08
2023-08-09T00:45:25.085Z,1.50
2023-08-09T00:47:53.713Z,1.70
2023-08-09T00:50:22.987Z,1.48
2023-08-09T00:52:52.193Z,1.83
2023-08-09T00:55:20.923Z,1.77
2023-08-09T00:57:51.533Z,1.60
2023-08-09T01:00:20.313Z,1.35
2023-08-09T01:05:19.222Z,1.42
2023-08-09T01:08:03.306Z,1.48
2023-08-09T01:10:43.097Z,1.33
2023-08-09T01:13:16.287Z,2.03
2023-08-09T01:15:45.485Z,1.77
2023-08-09T01:18:14.677Z,1.90
2023-08-09T01:20:43.446Z,1.67
2023-08-09T01:23:22.056Z,1.42
2023-08-09T01:25:51.368Z,1.92
2023-08-09T01:28:20.430Z,1.88
2023-08-09T01:30:51.474Z,1.38
2023-08-09T01:33:20.424Z,1.48
2023-08-09T01:36:09.132Z,1.58
2023-08-09T01:38:44.255Z,1.23
2023-08-09T01:41:14.019Z,1.67
2023-08-09T01:43:43.145Z,1.08
2023-08-09T01:46:11.920Z,1.80
2023-08-09T01:51:08.190Z,1.17
2023-08-09T01:53:36.441Z,1.05
2023-08-09T01:56:06.908Z,1.70
2023-08-09T01:58:35.854Z,1.55
2023-08-09T02:01:05.176Z,1.55
2023-08-09T02:03:35.527Z,1.60
2023-08-09T02:06:04.197Z,1.33
2023-08-09T02:08:33.381Z,1.67
2023-08-09T02:11:01.748Z,1.35
2023-08-09T02:13:30.926Z,1.95
2023-08-09T02:15:59.309Z,1.75
2023-08-09T02:18:28.498Z,1.30
2023-08-09T02:20:56.726Z,2.40
2023-08-09T02:23:25.464Z,1.70
2023-08-09T02:25:55.220Z,2.13
2023-08-09T02:28:25.039Z,2.05
2023-08-09T02:30:54.758Z,1.83
2023-08-09T02:33:23.069Z,2.33
2023-08-09T02:35:55.569Z,1.38
2023-08-09T02:38:25.997Z,1.67
2023-08-09T02:40:55.044Z,1.48
2023-08-09T02:43:27.984Z,1.85
2023-08-09T02:45:56.537Z,1.88
2023-08-09T02:48:27.010Z,2.40
2023-08-09T02:50:55.330Z,1.80
2023-08-09T02:53:29.542Z,2.22
2023-08-09T02:55:58.010Z,1.65
2023-08-09T02:58:27.058Z,1.63
2023-08-09T03:00:55.249Z,1.35
2023-08-09T03:03:24.153Z,1.73
2023-08-09T03:05:52.564Z,1.80
2023-08-09T03:08:21.501Z,2.08
2023-08-09T03:10:51.402Z,1.80
2023-08-09T03:13:20.468Z,1.50
2023-08-09T03:15:50.008Z,1.90
2023-08-09T03:18:19.419Z,1.85
2023-08-09T03:20:49.261Z,1.10
2023-08-09T03:23:19.199Z,1.25
2023-08-09T03:25:49.509Z,1.88
2023-08-09T03:28:19.240Z,1.35
2023-08-09T03:30:48.484Z,1.58
2023-08-09T03:33:20.491Z,1.90
2023-08-09T03:35:49.440Z,1.25
2023-08-09T03:38:19.361Z,1.35
2023-08-09T03:40:47.573Z,1.77
2023-08-09T03:43:16.154Z,1.48
2023-08-09T03:45:45.318Z,1.27
2023-08-09T03:48:13.710Z,1.95
2023-08-09T03:50:42.720Z,1.35
2023-08-09T03:53:11.085Z,1.83
2023-08-09T03:55:43.460Z,1.15
2023-08-09T03:58:11.753Z,1.35
2023-08-09T04:00:39.957Z,1.38
2023-08-09T04:03:08.340Z,1.45
2023-08-09T04:05:37.060Z,1.40
2023-08-09T04:08:08.115Z,1.20
2023-08-09T04:10:38.072Z,1.15
2023-08-09T04:13:06.311Z,1.63
2023-08-09T04:15:35.527Z,1.33
2023-08-09T04:18:03.826Z,1.50
2023-08-09T04:20:32.851Z,1.30
2023-08-09T04:23:04.715Z,1.05
2023-08-09T04:25:32.902Z,1.50
2023-08-09T04:28:01.135Z,1.10
2023-08-09T04:30:29.827Z,1.55
2023-08-09T04:32:58.078Z,1.35
2023-08-09T04:35:26.335Z,1.25
2023-08-09T04:37:54.522Z,1.40
2023-08-09T04:40:22.698Z,1.70
2023-08-09T04:42:51.235Z,1.50
2023-08-09T04:45:20.052Z,1.40
2023-08-09T04:50:17.631Z,0.88
2023-08-09T04:52:45.833Z,1.10
2023-08-09T04:55:14.101Z,1.58
2023-08-09T04:57:43.383Z,1.30
2023-08-09T05:00:12.303Z,1.15
2023-08-09T05:02:41.278Z,1.48
2023-08-09T05:05:10.500Z,1.70
2023-08-09T05:07:40.590Z,1.90
2023-08-09T05:10:11.857Z,1.88
2023-08-09T05:12:40.131Z,2.05
2023-08-09T05:15:09.255Z,1.52
2023-08-09T05:17:37.605Z,1.70
2023-08-09T05:20:06.246Z,1.35
2023-08-09T05:22:34.945Z,1.95
2023-08-09T05:25:03.176Z,2.03
2023-08-09T05:27:31.447Z,1.90
2023-08-09T05:29:59.686Z,1.70
2023-08-09T05:32:27.961Z,1.85
2023-08-09T05:34:56.246Z,2.00
2023-08-09T05:37:24.565Z,2.10
2023-08-09T05:39:52.806Z,1.75
2023-08-09T05:42:21.149Z,2.25
2023-08-09T05:44:49.311Z,1.65
2023-08-09T05:47:17.518Z,2.00
2023-08-09T05:49:46.204Z,2.00
2023-08-09T05:54:42.283Z,2.08
2023-08-09T05:57:10.793Z,1.52
2023-08-09T05:59:38.973Z,2.00
2023-08-09T06:02:08.541Z,2.22
2023-08-09T06:04:36.902Z,2.30
2023-08-09T06:07:05.516Z,2.25
2023-08-09T06:12:16.558Z,1.75
2023-08-09T06:14:44.902Z,2.42
2023-08-09T06:17:13.184Z,2.50
2023-08-09T06:19:41.545Z,2.65
2023-08-09T06:22:10.122Z,2.53
2023-08-09T06:24:38.392Z,2.35
2023-08-09T06:27:06.751Z,2.53
2023-08-09T06:29:35.063Z,2.30
2023-08-09T06:32:03.333Z,3.03
2023-08-09T06:34:31.646Z,2.85
2023-08-09T06:37:00.150Z,2.83
2023-08-09T06:39:28.853Z,2.50
2023-08-09T06:41:57.212Z,3.05
2023-08-09T06:44:25.513Z,3.20
2023-08-09T06:46:57.497Z,3.10
2023-08-09T06:49:25.801Z,3.17
2023-08-09T06:51:55.787Z,3.33
2023-08-09T06:54:24.112Z,2.75
2023-08-09T06:56:53.026Z,3.30
2023-08-09T06:59:21.461Z,2.90
2023-08-09T07:01:50.249Z,3.67
2023-08-09T07:04:19.972Z,3.00
2023-08-09T07:06:48.396Z,2.97
2023-08-09T07:09:19.592Z,2.78
2023-08-09T07:11:48.014Z,2.92
2023-08-09T07:14:16.316Z,3.00
2023-08-09T07:16:44.730Z,3.30
2023-08-09T07:19:12.983Z,3.03
2023-08-09T07:21:41.468Z,2.90
2023-08-09T07:26:37.777Z,2.55
2023-08-09T07:31:33.825Z,2.25
2023-08-09T07:34:02.645Z,2.50
2023-08-09T07:36:30.954Z,2.25
2023-08-09T07:39:00.162Z,2.28
2023-08-09T07:41:29.011Z,2.50
2023-08-09T07:43:57.373Z,2.58
2023-08-09T07:46:25.740Z,2.35
2023-08-09T07:48:54.843Z,2.45
2023-08-09T07:51:23.129Z,2.25
2023-08-09T07:56:20.718Z,2.55
2023-08-09T07:58:49.110Z,2.60
2023-08-09T08:03:45.816Z,1.85
2023-08-09T08:06:14.041Z,2.10
2023-08-09T08:08:42.764Z,2.00
2023-08-09T08:11:10.981Z,1.75
2023-08-09T08:16:07.333Z,1.30
2023-08-09T08:18:35.684Z,1.77
2023-08-09T08:21:04.776Z,1.60
2023-08-09T08:23:33.676Z,1.75
2023-08-09T08:26:02.121Z,1.30
2023-08-09T08:28:31.502Z,1.70
2023-08-09T08:31:00.599Z,1.20
2023-08-09T08:33:29.442Z,1.30
2023-08-09T08:36:08.601Z,1.40
2023-08-09T08:38:45.884Z,1.00
2023-08-09T08:41:14.138Z,1.00
2023-08-09T08:43:42.979Z,1.02
2023-08-09T08:46:16.804Z,1.35
2023-08-09T08:48:49.753Z,1.00
2023-08-09T08:51:19.652Z,0.90
2023-08-09T08:53:48.982Z,1.00
2023-08-09T08:56:17.421Z,0.90
2023-08-09T08:58:45.846Z,0.93
2023-08-09T09:01:14.254Z,0.80
2023-08-09T09:03:42.592Z,1.15
2023-08-09T09:06:11.477Z,1.10
2023-08-09T09:08:43.932Z,1.10
2023-08-09T09:11:23.166Z,1.00
2023-08-09T09:13:53.046Z,1.30
2023-08-09T09:16:22.637Z,0.73
2023-08-09T09:18:51.190Z,0.80
2023-08-09T09:21:20.441Z,0.80
2023-08-09T09:23:48.749Z,0.68
2023-08-09T09:26:21.174Z,0.65
2023-08-09T09:28:50.354Z,0.85
2023-08-09T09:31:19.036Z,0.80
2023-08-09T09:33:52.980Z,1.00
2023-08-09T09:36:21.327Z,0.95
2023-08-09T09:38:57.305Z,0.95
2023-08-09T09:41:25.519Z,0.75
2023-08-09T09:43:54.022Z,0.98
2023-08-09T09:49:04.745Z,1.00
2023-08-09T09:51:33.685Z,1.23
2023-08-09T09:54:01.973Z,1.10
2023-08-09T09:56:30.230Z,1.00
2023-08-09T09:58:58.472Z,1.20
2023-08-09T10:01:29.293Z,1.20
2023-08-09T10:04:08.642Z,1.30
2023-08-09T10:06:40.918Z,1.60
2023-08-09T10:09:11.015Z,0.90
2023-08-09T10:11:40.612Z,0.88
2023-08-09T10:14:10.812Z,1.10
2023-08-09T10:16:40.130Z,0.88
2023-08-09T10:19:17.368Z,1.10
2023-08-09T10:21:45.628Z,1.05
2023-08-09T10:24:14.779Z,0.95
2023-08-09T10:26:50.150Z,0.88
2023-08-09T10:29:25.490Z,0.80
2023-08-09T10:32:06.540Z,1.10
2023-08-09T10:34:44.489Z,0.63
2023-08-09T10:37:24.063Z,1.00
2023-08-09T10:40:17.632Z,0.77
2023-08-09T10:42:49.513Z,0.80
2023-08-09T10:45:17.766Z,0.80
2023-08-09T10:47:47.237Z,0.90
2023-08-09T10:50:17.930Z,0.80
2023-08-09T10:52:50.542Z,0.93
2023-08-09T10:55:22.653Z,1.10
2023-08-09T10:57:52.620Z,1.00
2023-08-09T11:00:22.416Z,1.10
2023-08-09T11:02:51.635Z,0.90
2023-08-09T11:05:20.941Z,0.90
2023-08-09T11:07:51.767Z,0.85
2023-08-09T11:10:37.687Z,0.75
2023-08-09T11:13:16.807Z,0.65
2023-08-09T11:15:50.094Z,0.70
2023-08-09T11:18:18.470Z,0.80
2023-08-09T11:20:46.741Z,0.77
2023-08-09T11:23:15.194Z,0.73
2023-08-09T11:25:43.723Z,0.60
2023-08-09T11:28:14.965Z,0.70
2023-08-09T11:30:43.795Z,0.80
2023-08-09T11:33:13.268Z,0.75
2023-08-09T11:36:01.814Z,0.90
2023-08-09T11:38:30.084Z,0.88
2023-08-09T11:41:11.060Z,0.70
2023-08-09T11:43:39.606Z,0.60
2023-08-09T11:46:07.882Z,0.50
2023-08-09T11:48:40.116Z,0.50
2023-08-09T11:51:22.101Z,0.52
2023-08-09T11:53:51.603Z,0.70
2023-08-09T11:56:23.878Z,0.50
2023-08-09T11:58:54.762Z,0.60
2023-08-09T12:01:25.372Z,0.40
2023-08-09T12:04:07.513Z,0.40
2023-08-09T12:06:41.324Z,0.50
2023-08-09T12:09:32.140Z,0.50
2023-08-09T12:12:19.740Z,0.60
2023-08-09T12:14:55.961Z,1.65
2023-08-09T12:17:26.813Z,0.93
2023-08-09T12:20:07.832Z,0.98
2023-08-09T12:22:36.130Z,0.47
2023-08-09T12:25:05.562Z,0.70
2023-08-09T12:27:36.049Z,0.93
2023-08-09T12:30:05.660Z,0.40
2023-08-09T12:32:34.495Z,0.45
2023-08-09T12:35:02.762Z,0.50
2023-08-09T12:37:33.711Z,0.40
2023-08-09T12:40:01.980Z,0.65
2023-08-09T12:42:30.323Z,0.50
2023-08-09T12:44:58.504Z,0.40
2023-08-09T12:49:54.579Z,0.50
2023-08-09T12:54:52.901Z,0.40
2023-08-09T13:00:05.645Z,0.60
2023-08-09T13:02:34.022Z,0.57
2023-08-09T13:05:04.827Z,0.40
2023-08-09T13:07:53.301Z,0.70
2023-08-09T13:10:22.239Z,0.60
2023-08-09T13:12:50.458Z,0.40
2023-08-09T13:17:47.618Z,0.40
2023-08-09T13:20:16.407Z,0.60
2023-08-09T13:22:45.231Z,0.40
2023-08-09T13:25:13.638Z,0.38
2023-08-09T13:27:42.124Z,0.68
2023-08-09T13:30:10.917Z,0.47
2023-08-09T13:32:39.421Z,0.40
2023-08-09T13:35:08.937Z,0.80
2023-08-09T13:37:42.823Z,0.50
2023-08-09T13:40:16.275Z,0.68
2023-08-09T13:42:45.011Z,0.30
2023-08-09T13:45:13.231Z,0.30
2023-08-09T13:50:11.312Z,0.40
2023-08-09T13:52:39.560Z,0.50
2023-08-09T13:55:08.019Z,0.50
2023-08-09T13:57:36.843Z,0.60
2023-08-09T14:00:09.217Z,0.40
2023-08-09T14:02:37.725Z,0.50
2023-08-09T14:05:15.587Z,0.80
2023-08-09T14:07:44.588Z,0.60
2023-08-09T14:10:12.846Z,0.90
2023-08-09T14:15:10.206Z,0.40
2023-08-09T14:17:38.519Z,0.52
2023-08-09T14:22:35.358Z,0.38
2023-08-09T14:25:03.592Z,0.50
2023-08-09T14:29:59.782Z,0.50
2023-08-09T14:34:55.946Z,0.55
2023-08-09T14:37:24.213Z,0.70
2023-08-09T14:42:20.254Z,0.40
2023-08-09T14:44:48.443Z,0.50
2023-08-09T14:47:18.426Z,0.55
2023-08-09T14:49:47.206Z,0.77
2023-08-09T14:52:15.503Z,0.50
2023-08-09T14:57:11.619Z,0.40
2023-08-09T14:59:39.863Z,0.80
2023-08-09T15:02:08.947Z,0.40
2023-08-09T15:04:39.799Z,0.50
2023-08-09T15:07:10.056Z,0.50
2023-08-09T15:09:38.481Z,0.40
2023-08-09T15:12:07.261Z,0.73
2023-08-09T15:14:36.439Z,0.57
2023-08-09T15:17:24.569Z,0.93
2023-08-09T15:20:04.565Z,0.43
2023-08-09T15:22:32.831Z,0.57
2023-08-09T15:25:01.968Z,0.80
2023-08-09T15:27:30.276Z,0.70
2023-08-09T15:29:58.845Z,0.60
2023-08-09T15:32:27.250Z,0.60
2023-08-09T15:34:55.510Z,0.68
2023-08-09T15:37:23.743Z,0.47
2023-08-09T15:39:51.993Z,0.40
2023-08-09T15:42:20.317Z,0.38
2023-08-09T15:47:19.434Z,0.65
2023-08-09T15:49:49.331Z,0.55
2023-08-09T15:52:21.418Z,0.40
2023-08-09T15:54:49.666Z,0.40
2023-08-09T15:57:18.169Z,0.50
2023-08-09T15:59:46.798Z,0.65
2023-08-09T16:02:17.154Z,0.77
2023-08-09T16:04:45.584Z,0.50
2023-08-09T16:09:41.979Z,0.30
2023-08-09T16:12:12.190Z,0.30
2023-08-09T16:14:41.256Z,0.55
2023-08-09T16:17:09.495Z,0.55
2023-08-09T16:19:37.799Z,0.40
2023-08-09T16:22:06.844Z,0.45
2023-08-09T16:24:35.078Z,0.50
2023-08-09T16:29:33.834Z,0.50
2023-08-09T16:32:02.088Z,0.40
2023-08-09T16:34:30.511Z,0.30
2023-08-09T16:39:26.793Z,0.63
2023-08-09T16:41:55.054Z,0.43
2023-08-09T16:44:23.297Z,0.45
2023-08-09T16:46:51.570Z,0.52
2023-08-09T16:49:19.871Z,0.63
2023-08-09T16:51:48.135Z,0.20
2023-08-09T16:54:17.426Z,0.50
2023-08-09T16:56:46.079Z,0.45
2023-08-09T16:59:14.387Z,0.30
2023-08-09T17:01:42.642Z,0.40
2023-08-09T17:04:10.939Z,0.40
2023-08-09T17:09:07.122Z,0.40
2023-08-09T17:11:35.350Z,0.40
2023-08-09T17:14:03.764Z,0.47
2023-08-09T17:18:59.988Z,0.25
2023-08-09T17:21:28.284Z,1.00
2023-08-09T17:23:56.511Z,0.50
2023-08-09T17:26:24.831Z,0.40
2023-08-09T17:28:53.035Z,0.40
2023-08-09T17:31:21.245Z,0.55
2023-08-09T17:33:49.600Z,0.40
2023-08-09T17:36:17.917Z,0.40
2023-08-09T17:38:50.213Z,0.38
2023-08-09T17:41:18.566Z,0.47
2023-08-09T17:43:46.819Z,0.40
2023-08-09T17:46:15.302Z,0.40
2023-08-09T17:51:11.424Z,0.70
2023-08-09T17:53:39.836Z,0.38
2023-08-09T17:58:38.214Z,0.50
2023-08-09T18:01:06.874Z,0.30
2023-08-09T18:03:35.180Z,0.60
2023-08-09T18:06:04.538Z,0.57
2023-08-09T18:08:33.106Z,0.40
2023-08-09T18:13:29.273Z,0.30
2023-08-09T18:15:57.690Z,0.30
2023-08-09T18:18:26.064Z,0.35
2023-08-09T18:20:54.354Z,0.65
2023-08-09T18:23:22.636Z,0.45
2023-08-09T18:25:50.900Z,0.40
2023-08-09T18:28:19.154Z,0.98
2023-08-09T18:30:47.578Z,0.80
2023-08-09T18:33:16.145Z,0.30
2023-08-09T18:38:12.653Z,0.40
2023-08-09T18:40:40.825Z,0.60
2023-08-09T18:43:09.082Z,0.40
2023-08-09T18:45:37.486Z,0.70
2023-08-09T18:48:06.079Z,0.63
2023-08-09T18:53:02.465Z,0.50
2023-08-09T18:55:30.926Z,0.35
2023-08-09T18:57:59.512Z,0.43
2023-08-09T19:02:55.909Z,0.30
2023-08-09T19:05:24.279Z,0.45
2023-08-09T19:07:52.528Z,0.40
2023-08-09T19:10:20.870Z,0.43
2023-08-09T19:12:50.607Z,0.57
2023-08-09T19:15:19.789Z,0.20
2023-08-09T19:17:48.182Z,0.47
2023-08-09T19:20:17.824Z,0.30
2023-08-09T19:22:46.050Z,0.30
2023-08-09T19:25:14.443Z,0.77
2023-08-09T19:27:42.822Z,0.30
2023-08-09T19:30:11.285Z,0.30
2023-08-09T19:32:39.768Z,0.25
2023-08-09T19:35:08.519Z,0.32
2023-08-09T19:37:38.122Z,0.32
2023-08-09T19:40:08.788Z,0.40
2023-08-09T19:42:37.868Z,0.20
2023-08-09T19:45:06.629Z,0.52
2023-08-09T19:50:02.802Z,0.25
2023-08-09T19:52:31.052Z,0.30
2023-08-09T19:54:59.389Z,0.20
2023-08-09T19:57:28.091Z,0.50
2023-08-09T20:02:24.289Z,0.47
2023-08-09T20:04:52.556Z,0.30
2023-08-09T20:07:20.785Z,0.20
2023-08-09T20:09:49.424Z,0.57
2023-08-09T20:12:17.611Z,0.47
2023-08-09T20:14:45.867Z,0.40
2023-08-09T20:17:14.518Z,0.20
2023-08-09T20:22:10.637Z,0.38
2023-08-09T20:24:44.375Z,0.50
2023-08-09T20:27:13.734Z,0.65
2023-08-09T20:29:42.337Z,0.50
2023-08-09T20:32:10.706Z,0.50
2023-08-09T20:34:38.986Z,0.30
2023-08-09T20:37:07.524Z,0.50
2023-08-09T20:39:36.270Z,0.45
2023-08-09T20:42:04.561Z,0.47
2023-08-09T20:44:36.720Z,0.60
2023-08-09T20:47:06.960Z,0.60
2023-08-09T20:49:35.909Z,0.40
2023-08-09T20:52:05.542Z,0.50
2023-08-09T20:54:33.943Z,0.20
2023-08-09T20:57:02.455Z,0.30
2023-08-09T20:59:34.756Z,0.40
2023-08-09T21:02:03.229Z,0.68
2023-08-09T21:06:59.776Z,0.20
2023-08-09T21:09:29.031Z,0.32
2023-08-09T21:11:57.320Z,0.50
2023-08-09T21:14:25.562Z,0.30
2023-08-09T21:16:53.849Z,0.40
2023-08-09T21:19:22.126Z,0.40
2023-08-09T21:21:50.475Z,0.20
2023-08-09T21:26:51.816Z,0.38
2023-08-09T21:29:24.218Z,0.50
2023-08-09T21:31:52.926Z,0.35
2023-08-09T21:36:49.225Z,0.28
2023-08-09T21:39:17.486Z,0.20
2023-08-09T21:41:45.721Z,0.38
2023-08-09T21:44:13.936Z,0.55
2023-08-09T21:46:42.411Z,0.30
2023-08-09T21:49:10.635Z,0.80
2023-08-09T21:51:38.851Z,0.60
2023-08-09T21:54:07.378Z,0.50
2023-08-09T21:56:35.705Z,0.50
2023-08-09T21:59:04.752Z,0.50
2023-08-09T22:01:33.146Z,0.50
2023-08-09T22:04:01.625Z,0.30
2023-08-09T22:06:29.945Z,0.50
2023-08-09T22:08:58.160Z,0.30
2023-08-09T22:11:26.430Z,0.70
2023-08-09T22:13:54.703Z,0.82
2023-08-09T22:16:25.446Z,0.43
2023-08-09T22:18:54.169Z,0.60
2023-08-09T22:21:22.529Z,0.65
2023-08-09T22:23:51.814Z,0.47
2023-08-09T22:26:21.791Z,0.38
2023-08-09T22:28:50.556Z,0.38
2023-08-09T22:33:46.698Z,0.70
2023-08-09T22:36:14.955Z,0.50
2023-08-09T22:38:43.229Z,0.20
2023-08-09T22:41:11.539Z,0.47
2023-08-09T22:43:39.862Z,0.50
2023-08-09T22:46:08.217Z,0.43
2023-08-09T22:48:36.827Z,0.40
2023-08-09T22:51:06.012Z,0.17
2023-08-09T22:53:34.543Z,0.40
2023-08-09T22:56:04.205Z,0.30
2023-08-09T22:58:32.454Z,0.60
2023-08-09T23:01:01.613Z,0.60
2023-08-09T23:03:30.056Z,0.45
2023-08-09T23:05:58.360Z,0.60
2023-08-09T23:08:26.830Z,0.60
2023-08-09T23:10:55.535Z,0.28
2023-08-09T23:15:51.830Z,0.40
2023-08-09T23:18:20.083Z,0.50
2023-08-09T23:20:48.352Z,0.28
2023-08-09T23:23:16.810Z,0.50
2023-08-09T23:25:45.064Z,0.30
2023-08-09T23:28:13.461Z,0.50
2023-08-09T23:30:41.894Z,0.20
2023-08-09T23:33:10.268Z,0.50
2023-08-09T23:35:38.949Z,0.73
2023-08-09T23:38:07.144Z,0.60
2023-08-09T23:40:42.400Z,0.70
2023-08-09T23:43:10.598Z,0.40
2023-08-09T23:45:39.210Z,0.70
2023-08-09T23:48:09.085Z,0.77
2023-08-09T23:50:37.407Z,0.47
2023-08-09T23:53:05.673Z,0.80
2023-08-09T23:55:34.042Z,0.60
